Terminal Aerodrome Forecast
Issued by NWS

Home | Current Version | Previous Version | Text Only | Print | Product List | Glossary On
Versions: 1 2 3 4 5 6 7 8 9 10 11 12 13 14 15 16 17 18 19 20 21 22
000
FTUS42 KGSP 301700
TAFAND
TAF
KAND 301720Z 3018/0118 30003KT P6SM SKC
     FM302100 22003KT P6SM FEW040
     FM010900 00000KT 5SM BR FEW040
     FM011300 21003KT P6SM FEW045=

USA.gov is the U.S. government's official web portal to all federal, state and local government web resources and services.